sensor_id;sensor_type;location;lat;lon;timestamp;P1;durP1;ratioP1;P2;durP2;ratioP2
2544;SDS011;36212;48.838;9.142;2024-03-06T00:02:00;5.93;;;4.75;;
2544;SDS011;36212;48.838;9.142;2024-03-06T00:04:34;6.25;;;5.32;;
2544;SDS011;36212;48.838;9.142;2024-03-06T00:07:07;4.57;;;4.35;;
2544;SDS011;36212;48.838;9.142;2024-03-06T00:09:39;4.70;;;4.38;;
2544;SDS011;36212;48.838;9.142;2024-03-06T00:12:11;5.13;;;4.72;;
2544;SDS011;36212;48.838;9.142;2024-03-06T00:14:44;4.95;;;4.65;;
2544;SDS011;36212;48.838;9.142;2024-03-06T00:17:16;5.10;;;4.70;;
2544;SDS011;36212;48.838;9.142;2024-03-06T00:19:48;5.00;;;4.70;;
2544;SDS011;36212;48.838;9.142;2024-03-06T00:22:21;4.82;;;4.43;;
2544;SDS011;36212;48.838;9.142;2024-03-06T00:24:55;4.30;;;4.05;;
2544;SDS011;36212;48.838;9.142;2024-03-06T00:27:27;4.80;;;4.40;;
2544;SDS011;36212;48.838;9.142;2024-03-06T00:29:59;4.90;;;4.60;;
2544;SDS011;36212;48.838;9.142;2024-03-06T00:32:32;4.75;;;4.35;;
2544;SDS011;36212;48.838;9.142;2024-03-06T00:35:04;4.72;;;4.38;;
2544;SDS011;36212;48.838;9.142;2024-03-06T00:37:37;4.22;;;3.92;;
2544;SDS011;36212;48.838;9.142;2024-03-06T00:40:10;4.13;;;3.92;;
2544;SDS011;36212;48.838;9.142;2024-03-06T00:42:43;4.70;;;4.40;;
2544;SDS011;36212;48.838;9.142;2024-03-06T00:45:15;5.57;;;5.18;;
2544;SDS011;36212;48.838;9.142;2024-03-06T00:47:48;5.22;;;4.82;;
2544;SDS011;36212;48.838;9.142;2024-03-06T00:50:20;5.65;;;5.20;;
2544;SDS011;36212;48.838;9.142;2024-03-06T00:52:54;5.15;;;4.75;;
2544;SDS011;36212;48.838;9.142;2024-03-06T00:55:26;4.65;;;4.43;;
2544;SDS011;36212;48.838;9.142;2024-03-06T00:57:58;5.05;;;4.60;;
2544;SDS011;36212;48.838;9.142;2024-03-06T01:00:30;5.22;;;4.72;;
2544;SDS011;36212;48.838;9.142;2024-03-06T01:03:03;4.78;;;4.47;;
2544;SDS011;36212;48.838;9.142;2024-03-06T01:05:36;4.95;;;4.50;;
2544;SDS011;36212;48.838;9.142;2024-03-06T01:08:08;5.10;;;4.60;;
2544;SDS011;36212;48.838;9.142;2024-03-06T01:10:40;4.50;;;4.20;;
2544;SDS011;36212;48.838;9.142;2024-03-06T01:13:13;4.85;;;4.55;;
2544;SDS011;36212;48.838;9.142;2024-03-06T01:15:45;5.25;;;4.75;;
2544;SDS011;36212;48.838;9.142;2024-03-06T01:18:18;5.40;;;4.93;;
2544;SDS011;36212;48.838;9.142;2024-03-06T01:20:50;4.80;;;4.50;;
2544;SDS011;36212;48.838;9.142;2024-03-06T01:23:22;5.90;;;5.50;;
2544;SDS011;36212;48.838;9.142;2024-03-06T01:25:54;5.22;;;4.78;;
2544;SDS011;36212;48.838;9.142;2024-03-06T01:28:27;5.10;;;4.70;;
2544;SDS011;36212;48.838;9.142;2024-03-06T01:30:59;5.20;;;4.80;;
2544;SDS011;36212;48.838;9.142;2024-03-06T01:33:32;5.18;;;4.80;;
2544;SDS011;36212;48.838;9.142;2024-03-06T01:36:04;5.22;;;4.82;;
2544;SDS011;36212;48.838;9.142;2024-03-06T01:38:37;4.80;;;4.50;;
2544;SDS011;36212;48.838;9.142;2024-03-06T01:41:10;6.70;;;4.82;;
2544;SDS011;36212;48.838;9.142;2024-03-06T01:43:44;4.80;;;4.47;;
2544;SDS011;36212;48.838;9.142;2024-03-06T01:46:17;5.15;;;4.80;;
2544;SDS011;36212;48.838;9.142;2024-03-06T01:48:49;5.00;;;4.70;;
2544;SDS011;36212;48.838;9.142;2024-03-06T01:51:22;5.35;;;4.85;;
2544;SDS011;36212;48.838;9.142;2024-03-06T01:53:56;6.03;;;5.45;;
2544;SDS011;36212;48.838;9.142;2024-03-06T01:56:31;6.07;;;5.03;;
2544;SDS011;36212;48.838;9.142;2024-03-06T01:59:07;5.22;;;4.82;;
2544;SDS011;36212;48.838;9.142;2024-03-06T02:01:43;6.35;;;5.85;;
2544;SDS011;36212;48.838;9.142;2024-03-06T02:04:16;6.40;;;5.80;;
2544;SDS011;36212;48.838;9.142;2024-03-06T02:06:50;5.35;;;5.05;;
2544;SDS011;36212;48.838;9.142;2024-03-06T02:09:23;6.85;;;5.07;;
2544;SDS011;36212;48.838;9.142;2024-03-06T02:11:56;5.55;;;5.15;;
2544;SDS011;36212;48.838;9.142;2024-03-06T02:14:28;5.00;;;4.60;;
2544;SDS011;36212;48.838;9.142;2024-03-06T02:17:01;5.50;;;5.10;;
2544;SDS011;36212;48.838;9.142;2024-03-06T02:19:40;5.78;;;4.80;;
2544;SDS011;36212;48.838;9.142;2024-03-06T02:22:14;5.68;;;5.28;;
2544;SDS011;36212;48.838;9.142;2024-03-06T02:24:47;6.55;;;5.95;;
2544;SDS011;36212;48.838;9.142;2024-03-06T02:27:20;5.90;;;5.50;;
2544;SDS011;36212;48.838;9.142;2024-03-06T02:29:52;6.28;;;5.78;;
2544;SDS011;36212;48.838;9.142;2024-03-06T02:32:25;6.15;;;5.50;;
2544;SDS011;36212;48.838;9.142;2024-03-06T02:34:58;5.93;;;5.43;;
2544;SDS011;36212;48.838;9.142;2024-03-06T02:37:31;6.90;;;6.40;;
2544;SDS011;36212;48.838;9.142;2024-03-06T02:40:12;6.70;;;6.20;;
2544;SDS011;36212;48.838;9.142;2024-03-06T02:42:45;6.53;;;6.03;;
2544;SDS011;36212;48.838;9.142;2024-03-06T02:45:18;6.30;;;5.90;;
2544;SDS011;36212;48.838;9.142;2024-03-06T02:47:50;6.82;;;6.22;;
2544;SDS011;36212;48.838;9.142;2024-03-06T02:50:22;6.97;;;6.43;;
2544;SDS011;36212;48.838;9.142;2024-03-06T02:52:55;6.50;;;6.00;;
2544;SDS011;36212;48.838;9.142;2024-03-06T02:55:28;7.88;;;7.13;;
2544;SDS011;36212;48.838;9.142;2024-03-06T02:58:03;6.47;;;6.07;;
2544;SDS011;36212;48.838;9.142;2024-03-06T03:00:36;6.88;;;6.00;;
2544;SDS011;36212;48.838;9.142;2024-03-06T03:03:10;5.78;;;5.32;;
2544;SDS011;36212;48.838;9.142;2024-03-06T03:05:46;7.30;;;5.30;;
2544;SDS011;36212;48.838;9.142;2024-03-06T03:08:18;6.15;;;5.70;;
2544;SDS011;36212;48.838;9.142;2024-03-06T03:10:51;6.72;;;5.97;;
2544;SDS011;36212;48.838;9.142;2024-03-06T03:13:23;10.18;;;6.38;;
2544;SDS011;36212;48.838;9.142;2024-03-06T03:15:55;5.90;;;5.50;;
2544;SDS011;36212;48.838;9.142;2024-03-06T03:18:28;6.40;;;5.93;;
2544;SDS011;36212;48.838;9.142;2024-03-06T03:21:00;7.82;;;6.10;;
2544;SDS011;36212;48.838;9.142;2024-03-06T03:23:39;7.00;;;5.70;;
2544;SDS011;36212;48.838;9.142;2024-03-06T03:26:11;6.20;;;5.60;;
2544;SDS011;36212;48.838;9.142;2024-03-06T03:28:43;7.18;;;6.00;;
2544;SDS011;36212;48.838;9.142;2024-03-06T03:31:16;6.10;;;5.70;;
2544;SDS011;36212;48.838;9.142;2024-03-06T03:33:48;6.70;;;5.90;;
2544;SDS011;36212;48.838;9.142;2024-03-06T03:36:21;6.63;;;6.00;;
2544;SDS011;36212;48.838;9.142;2024-03-06T03:38:56;6.05;;;5.65;;
2544;SDS011;36212;48.838;9.142;2024-03-06T03:41:45;6.38;;;5.85;;
2544;SDS011;36212;48.838;9.142;2024-03-06T03:44:31;5.95;;;5.55;;
2544;SDS011;36212;48.838;9.142;2024-03-06T03:47:11;6.50;;;6.07;;
2544;SDS011;36212;48.838;9.142;2024-03-06T03:49:57;6.13;;;5.60;;
2544;SDS011;36212;48.838;9.142;2024-03-06T03:52:43;6.43;;;6.00;;
2544;SDS011;36212;48.838;9.142;2024-03-06T03:55:15;6.97;;;6.38;;
2544;SDS011;36212;48.838;9.142;2024-03-06T03:57:48;7.03;;;6.45;;
2544;SDS011;36212;48.838;9.142;2024-03-06T04:00:20;8.95;;;6.45;;
2544;SDS011;36212;48.838;9.142;2024-03-06T04:02:54;6.55;;;6.05;;
2544;SDS011;36212;48.838;9.142;2024-03-06T04:05:26;6.47;;;5.88;;
2544;SDS011;36212;48.838;9.142;2024-03-06T04:07:59;5.95;;;5.55;;
2544;SDS011;36212;48.838;9.142;2024-03-06T04:10:31;6.30;;;5.75;;
2544;SDS011;36212;48.838;9.142;2024-03-06T04:13:04;6.10;;;5.70;;
2544;SDS011;36212;48.838;9.142;2024-03-06T04:15:37;7.03;;;5.90;;
2544;SDS011;36212;48.838;9.142;2024-03-06T04:18:10;6.53;;;6.13;;
2544;SDS011;36212;48.838;9.142;2024-03-06T04:20:43;6.75;;;6.15;;
2544;SDS011;36212;48.838;9.142;2024-03-06T04:23:15;6.30;;;5.88;;
2544;SDS011;36212;48.838;9.142;2024-03-06T04:25:48;6.20;;;5.70;;
2544;SDS011;36212;48.838;9.142;2024-03-06T04:28:20;6.18;;;5.75;;
2544;SDS011;36212;48.838;9.142;2024-03-06T04:30:52;7.53;;;5.65;;
2544;SDS011;36212;48.838;9.142;2024-03-06T04:33:25;6.60;;;6.10;;
2544;SDS011;36212;48.838;9.142;2024-03-06T04:35:57;9.45;;;6.65;;
2544;SDS011;36212;48.838;9.142;2024-03-06T04:38:33;6.90;;;6.40;;
2544;SDS011;36212;48.838;9.142;2024-03-06T04:41:06;6.70;;;6.20;;
2544;SDS011;36212;48.838;9.142;2024-03-06T04:43:38;8.45;;;7.60;;
2544;SDS011;36212;48.838;9.142;2024-03-06T04:46:14;6.72;;;6.30;;
2544;SDS011;36212;48.838;9.142;2024-03-06T04:48:46;7.28;;;6.57;;
2544;SDS011;36212;48.838;9.142;2024-03-06T04:51:20;7.10;;;6.65;;
2544;SDS011;36212;48.838;9.142;2024-03-06T04:53:52;6.85;;;6.35;;
2544;SDS011;36212;48.838;9.142;2024-03-06T04:56:24;9.90;;;6.93;;
2544;SDS011;36212;48.838;9.142;2024-03-06T04:58:56;7.60;;;7.10;;
2544;SDS011;36212;48.838;9.142;2024-03-06T05:01:34;6.75;;;6.15;;
2544;SDS011;36212;48.838;9.142;2024-03-06T05:04:06;8.60;;;7.90;;
2544;SDS011;36212;48.838;9.142;2024-03-06T05:06:56;8.55;;;7.75;;
2544;SDS011;36212;48.838;9.142;2024-03-06T05:09:45;8.52;;;7.82;;
2544;SDS011;36212;48.838;9.142;2024-03-06T05:12:38;9.00;;;8.07;;
2544;SDS011;36212;48.838;9.142;2024-03-06T05:15:28;8.20;;;7.40;;
2544;SDS011;36212;48.838;9.142;2024-03-06T05:18:17;9.02;;;8.10;;
2544;SDS011;36212;48.838;9.142;2024-03-06T05:21:08;8.75;;;7.95;;
2544;SDS011;36212;48.838;9.142;2024-03-06T05:23:58;6.78;;;6.18;;
2544;SDS011;36212;48.838;9.142;2024-03-06T05:26:48;8.73;;;8.02;;
2544;SDS011;36212;48.838;9.142;2024-03-06T05:29:38;8.40;;;7.60;;
2544;SDS011;36212;48.838;9.142;2024-03-06T05:32:29;9.43;;;8.48;;
2544;SDS011;36212;48.838;9.142;2024-03-06T05:35:19;8.25;;;7.40;;
2544;SDS011;36212;48.838;9.142;2024-03-06T05:38:09;9.30;;;8.40;;
2544;SDS011;36212;48.838;9.142;2024-03-06T05:40:58;9.25;;;8.32;;
2544;SDS011;36212;48.838;9.142;2024-03-06T05:43:49;10.02;;;9.18;;
2544;SDS011;36212;48.838;9.142;2024-03-06T05:46:39;8.45;;;7.80;;
2544;SDS011;36212;48.838;9.142;2024-03-06T05:49:30;8.68;;;8.00;;
2544;SDS011;36212;48.838;9.142;2024-03-06T05:52:21;8.32;;;7.68;;
2544;SDS011;36212;48.838;9.142;2024-03-06T05:55:11;9.45;;;8.55;;
2544;SDS011;36212;48.838;9.142;2024-03-06T05:58:00;9.48;;;8.57;;
2544;SDS011;36212;48.838;9.142;2024-03-06T06:00:46;9.30;;;8.50;;
2544;SDS011;36212;48.838;9.142;2024-03-06T06:03:19;12.60;;;7.28;;
2544;SDS011;36212;48.838;9.142;2024-03-06T06:05:51;10.55;;;9.43;;
2544;SDS011;36212;48.838;9.142;2024-03-06T06:08:24;10.13;;;9.20;;
2544;SDS011;36212;48.838;9.142;2024-03-06T06:10:56;9.23;;;8.23;;
2544;SDS011;36212;48.838;9.142;2024-03-06T06:13:29;8.32;;;7.47;;
2544;SDS011;36212;48.838;9.142;2024-03-06T06:16:02;8.27;;;7.47;;
2544;SDS011;36212;48.838;9.142;2024-03-06T06:18:35;10.00;;;9.20;;
2544;SDS011;36212;48.838;9.142;2024-03-06T06:21:10;8.43;;;7.72;;
2544;SDS011;36212;48.838;9.142;2024-03-06T06:23:42;8.85;;;8.05;;
2544;SDS011;36212;48.838;9.142;2024-03-06T06:26:15;9.40;;;8.60;;
2544;SDS011;36212;48.838;9.142;2024-03-06T06:28:47;8.90;;;8.10;;
2544;SDS011;36212;48.838;9.142;2024-03-06T06:31:20;8.82;;;8.13;;
2544;SDS011;36212;48.838;9.142;2024-03-06T06:33:53;10.13;;;9.32;;
2544;SDS011;36212;48.838;9.142;2024-03-06T06:36:25;8.60;;;7.90;;
2544;SDS011;36212;48.838;9.142;2024-03-06T06:38:59;10.57;;;8.80;;
2544;SDS011;36212;48.838;9.142;2024-03-06T06:41:36;9.07;;;8.25;;
2544;SDS011;36212;48.838;9.142;2024-03-06T06:44:09;9.50;;;8.70;;
2544;SDS011;36212;48.838;9.142;2024-03-06T06:46:41;10.30;;;8.70;;
2544;SDS011;36212;48.838;9.142;2024-03-06T06:49:14;9.68;;;8.68;;
2544;SDS011;36212;48.838;9.142;2024-03-06T06:51:47;9.90;;;9.20;;
2544;SDS011;36212;48.838;9.142;2024-03-06T06:54:20;8.68;;;7.88;;
2544;SDS011;36212;48.838;9.142;2024-03-06T06:56:53;9.95;;;8.95;;
2544;SDS011;36212;48.838;9.142;2024-03-06T06:59:26;9.75;;;8.93;;
2544;SDS011;36212;48.838;9.142;2024-03-06T07:01:59;10.18;;;9.27;;
2544;SDS011;36212;48.838;9.142;2024-03-06T07:04:33;14.30;;;8.05;;
2544;SDS011;36212;48.838;9.142;2024-03-06T07:07:05;9.52;;;8.68;;
2544;SDS011;36212;48.838;9.142;2024-03-06T07:09:38;9.80;;;9.10;;
2544;SDS011;36212;48.838;9.142;2024-03-06T07:12:10;10.23;;;8.38;;
2544;SDS011;36212;48.838;9.142;2024-03-06T07:14:43;9.50;;;8.65;;
2544;SDS011;36212;48.838;9.142;2024-03-06T07:17:15;10.07;;;9.13;;
2544;SDS011;36212;48.838;9.142;2024-03-06T07:20:13;9.48;;;8.55;;
2544;SDS011;36212;48.838;9.142;2024-03-06T07:22:45;9.20;;;8.30;;
2544;SDS011;36212;48.838;9.142;2024-03-06T07:25:18;11.60;;;10.02;;
2544;SDS011;36212;48.838;9.142;2024-03-06T07:27:50;10.30;;;9.40;;
2544;SDS011;36212;48.838;9.142;2024-03-06T07:30:23;9.60;;;8.90;;
2544;SDS011;36212;48.838;9.142;2024-03-06T07:32:55;8.70;;;7.95;;
2544;SDS011;36212;48.838;9.142;2024-03-06T07:35:29;9.73;;;8.90;;
2544;SDS011;36212;48.838;9.142;2024-03-06T07:38:02;9.27;;;8.32;;
2544;SDS011;36212;48.838;9.142;2024-03-06T07:40:36;11.25;;;8.98;;
2544;SDS011;36212;48.838;9.142;2024-03-06T07:43:08;10.00;;;8.40;;
2544;SDS011;36212;48.838;9.142;2024-03-06T07:45:41;9.32;;;8.45;;
2544;SDS011;36212;48.838;9.142;2024-03-06T07:48:13;9.52;;;8.73;;
2544;SDS011;36212;48.838;9.142;2024-03-06T07:50:46;11.70;;;10.20;;
2544;SDS011;36212;48.838;9.142;2024-03-06T07:53:19;9.38;;;8.50;;
2544;SDS011;36212;48.838;9.142;2024-03-06T07:55:51;10.25;;;9.35;;
2544;SDS011;36212;48.838;9.142;2024-03-06T07:58:23;9.52;;;8.73;;
2544;SDS011;36212;48.838;9.142;2024-03-06T08:00:55;9.65;;;8.85;;
2544;SDS011;36212;48.838;9.142;2024-03-06T08:03:52;9.57;;;8.70;;
2544;SDS011;36212;48.838;9.142;2024-03-06T08:07:00;9.65;;;8.68;;
2544;SDS011;36212;48.838;9.142;2024-03-06T08:09:32;9.13;;;8.32;;
2544;SDS011;36212;48.838;9.142;2024-03-06T08:12:04;9.80;;;8.90;;
2544;SDS011;36212;48.838;9.142;2024-03-06T08:14:37;9.57;;;8.80;;
2544;SDS011;36212;48.838;9.142;2024-03-06T08:17:10;9.65;;;8.45;;
2544;SDS011;36212;48.838;9.142;2024-03-06T08:19:43;9.80;;;8.85;;
2544;SDS011;36212;48.838;9.142;2024-03-06T08:22:16;8.85;;;8.13;;
2544;SDS011;36212;48.838;9.142;2024-03-06T08:24:48;9.60;;;8.90;;
2544;SDS011;36212;48.838;9.142;2024-03-06T08:27:20;9.13;;;8.43;;
2544;SDS011;36212;48.838;9.142;2024-03-06T08:29:53;9.50;;;8.60;;
2544;SDS011;36212;48.838;9.142;2024-03-06T08:32:25;9.52;;;8.70;;
2544;SDS011;36212;48.838;9.142;2024-03-06T08:35:02;10.80;;;8.80;;
2544;SDS011;36212;48.838;9.142;2024-03-06T08:37:42;9.27;;;8.57;;
2544;SDS011;36212;48.838;9.142;2024-03-06T08:40:14;9.73;;;8.73;;
2544;SDS011;36212;48.838;9.142;2024-03-06T08:42:48;10.35;;;9.55;;
2544;SDS011;36212;48.838;9.142;2024-03-06T08:45:22;10.43;;;9.52;;
2544;SDS011;36212;48.838;9.142;2024-03-06T08:47:55;9.30;;;8.60;;
2544;SDS011;36212;48.838;9.142;2024-03-06T08:50:27;10.10;;;9.02;;
2544;SDS011;36212;48.838;9.142;2024-03-06T08:52:59;10.85;;;9.75;;
2544;SDS011;36212;48.838;9.142;2024-03-06T08:55:34;9.75;;;8.85;;
2544;SDS011;36212;48.838;9.142;2024-03-06T08:58:07;11.70;;;10.60;;
2544;SDS011;36212;48.838;9.142;2024-03-06T09:00:40;10.80;;;9.90;;
2544;SDS011;36212;48.838;9.142;2024-03-06T09:03:13;11.25;;;10.25;;
2544;SDS011;36212;48.838;9.142;2024-03-06T09:05:46;11.23;;;10.32;;
2544;SDS011;36212;48.838;9.142;2024-03-06T09:08:19;10.07;;;9.27;;
2544;SDS011;36212;48.838;9.142;2024-03-06T09:11:18;12.32;;;10.73;;
2544;SDS011;36212;48.838;9.142;2024-03-06T09:13:52;11.80;;;10.90;;
2544;SDS011;36212;48.838;9.142;2024-03-06T09:16:24;13.18;;;10.85;;
2544;SDS011;36212;48.838;9.142;2024-03-06T09:18:57;10.75;;;9.80;;
2544;SDS011;36212;48.838;9.142;2024-03-06T09:21:29;12.15;;;10.80;;
2544;SDS011;36212;48.838;9.142;2024-03-06T09:24:01;11.40;;;10.40;;
2544;SDS011;36212;48.838;9.142;2024-03-06T09:26:35;11.73;;;10.50;;
2544;SDS011;36212;48.838;9.142;2024-03-06T09:29:09;11.73;;;10.73;;
2544;SDS011;36212;48.838;9.142;2024-03-06T09:31:42;12.23;;;11.18;;
2544;SDS011;36212;48.838;9.142;2024-03-06T09:34:16;12.73;;;11.73;;
2544;SDS011;36212;48.838;9.142;2024-03-06T09:36:49;13.95;;;12.75;;
2544;SDS011;36212;48.838;9.142;2024-03-06T09:39:47;12.82;;;11.68;;
2544;SDS011;36212;48.838;9.142;2024-03-06T09:42:20;13.88;;;12.63;;
2544;SDS011;36212;48.838;9.142;2024-03-06T09:44:53;15.82;;;14.43;;
2544;SDS011;36212;48.838;9.142;2024-03-06T09:47:25;16.88;;;15.18;;
2544;SDS011;36212;48.838;9.142;2024-03-06T09:50:07;16.40;;;14.98;;
2544;SDS011;36212;48.838;9.142;2024-03-06T09:52:44;14.90;;;13.40;;
2544;SDS011;36212;48.838;9.142;2024-03-06T09:55:45;15.98;;;14.55;;
2544;SDS011;36212;48.838;9.142;2024-03-06T09:58:19;16.90;;;15.40;;
2544;SDS011;36212;48.838;9.142;2024-03-06T10:00:51;16.35;;;14.85;;
2544;SDS011;36212;48.838;9.142;2024-03-06T10:03:29;17.88;;;14.90;;
2544;SDS011;36212;48.838;9.142;2024-03-06T10:06:01;17.98;;;16.33;;
2544;SDS011;36212;48.838;9.142;2024-03-06T10:08:41;18.60;;;16.80;;
2544;SDS011;36212;48.838;9.142;2024-03-06T10:11:17;18.83;;;16.98;;
2544;SDS011;36212;48.838;9.142;2024-03-06T10:13:52;19.20;;;17.40;;
2544;SDS011;36212;48.838;9.142;2024-03-06T10:16:25;17.75;;;16.05;;
2544;SDS011;36212;48.838;9.142;2024-03-06T10:18:57;21.52;;;16.50;;
2544;SDS011;36212;48.838;9.142;2024-03-06T10:21:48;20.15;;;18.15;;
2544;SDS011;36212;48.838;9.142;2024-03-06T10:24:23;19.67;;;17.88;;
2544;SDS011;36212;48.838;9.142;2024-03-06T10:26:58;19.77;;;17.80;;
2544;SDS011;36212;48.838;9.142;2024-03-06T10:29:32;19.67;;;17.77;;
2544;SDS011;36212;48.838;9.142;2024-03-06T10:32:07;22.42;;;20.23;;
2544;SDS011;36212;48.838;9.142;2024-03-06T10:34:46;22.10;;;19.90;;
2544;SDS011;36212;48.838;9.142;2024-03-06T10:37:19;25.52;;;22.85;;
2544;SDS011;36212;48.838;9.142;2024-03-06T10:40:20;20.67;;;18.67;;
2544;SDS011;36212;48.838;9.142;2024-03-06T10:42:55;21.35;;;19.30;;
2544;SDS011;36212;48.838;9.142;2024-03-06T10:48:29;22.13;;;19.80;;
2544;SDS011;36212;48.838;9.142;2024-03-06T10:51:06;27.55;;;21.85;;
2544;SDS011;36212;48.838;9.142;2024-03-06T10:53:43;23.80;;;21.45;;
2544;SDS011;36212;48.838;9.142;2024-03-06T10:56:19;24.08;;;21.55;;
2544;SDS011;36212;48.838;9.142;2024-03-06T10:58:53;24.42;;;21.83;;
2544;SDS011;36212;48.838;9.142;2024-03-06T11:01:30;24.55;;;22.08;;
2544;SDS011;36212;48.838;9.142;2024-03-06T11:04:04;28.60;;;23.33;;
2544;SDS011;36212;48.838;9.142;2024-03-06T11:06:39;26.05;;;23.23;;
2544;SDS011;36212;48.838;9.142;2024-03-06T11:09:12;23.27;;;20.98;;
2544;SDS011;36212;48.838;9.142;2024-03-06T11:11:51;25.63;;;22.88;;
2544;SDS011;36212;48.838;9.142;2024-03-06T11:14:24;24.85;;;22.35;;
2544;SDS011;36212;48.838;9.142;2024-03-06T11:28:27;28.58;;;25.02;;
2544;SDS011;36212;48.838;9.142;2024-03-06T11:31:11;25.25;;;22.13;;
2544;SDS011;36212;48.838;9.142;2024-03-06T11:33:52;27.65;;;24.75;;
2544;SDS011;36212;48.838;9.142;2024-03-06T11:36:33;27.52;;;24.73;;
2544;SDS011;36212;48.838;9.142;2024-03-06T11:39:10;30.50;;;24.00;;
2544;SDS011;36212;48.838;9.142;2024-03-06T11:44:18;29.23;;;25.42;;
2544;SDS011;36212;48.838;9.142;2024-03-06T11:47:00;30.98;;;26.40;;
2544;SDS011;36212;48.838;9.142;2024-03-06T11:49:35;30.00;;;24.27;;
2544;SDS011;36212;48.838;9.142;2024-03-06T11:52:10;30.80;;;25.30;;
2544;SDS011;36212;48.838;9.142;2024-03-06T11:54:43;29.20;;;25.98;;
2544;SDS011;36212;48.838;9.142;2024-03-06T11:57:15;32.25;;;24.80;;
2544;SDS011;36212;48.838;9.142;2024-03-06T12:00:02;28.80;;;25.77;;
2544;SDS011;36212;48.838;9.142;2024-03-06T12:02:39;29.98;;;26.88;;
2544;SDS011;36212;48.838;9.142;2024-03-06T12:05:13;34.28;;;28.27;;
2544;SDS011;36212;48.838;9.142;2024-03-06T12:07:47;31.10;;;27.90;;
2544;SDS011;36212;48.838;9.142;2024-03-06T12:10:21;29.48;;;26.23;;
2544;SDS011;36212;48.838;9.142;2024-03-06T12:12:54;30.40;;;27.02;;
2544;SDS011;36212;48.838;9.142;2024-03-06T12:15:27;30.77;;;26.13;;
2544;SDS011;36212;48.838;9.142;2024-03-06T12:18:00;31.33;;;25.88;;
2544;SDS011;36212;48.838;9.142;2024-03-06T12:20:33;30.17;;;26.67;;
2544;SDS011;36212;48.838;9.142;2024-03-06T12:23:34;29.58;;;26.50;;
2544;SDS011;36212;48.838;9.142;2024-03-06T12:26:07;28.40;;;25.48;;
2544;SDS011;36212;48.838;9.142;2024-03-06T12:28:43;28.88;;;25.80;;
2544;SDS011;36212;48.838;9.142;2024-03-06T12:31:18;28.55;;;25.52;;
2544;SDS011;36212;48.838;9.142;2024-03-06T12:33:56;28.35;;;25.35;;
2544;SDS011;36212;48.838;9.142;2024-03-06T12:36:34;30.80;;;27.50;;
2544;SDS011;36212;48.838;9.142;2024-03-06T12:39:08;30.73;;;27.38;;
2544;SDS011;36212;48.838;9.142;2024-03-06T12:41:49;28.08;;;25.23;;
2544;SDS011;36212;48.838;9.142;2024-03-06T12:44:26;29.90;;;25.45;;
2544;SDS011;36212;48.838;9.142;2024-03-06T12:46:59;27.00;;;24.20;;
2544;SDS011;36212;48.838;9.142;2024-03-06T12:49:33;28.25;;;25.35;;
2544;SDS011;36212;48.838;9.142;2024-03-06T12:52:06;28.88;;;25.77;;
2544;SDS011;36212;48.838;9.142;2024-03-06T12:54:39;27.25;;;24.52;;
2544;SDS011;36212;48.838;9.142;2024-03-06T12:57:14;26.80;;;23.85;;
2544;SDS011;36212;48.838;9.142;2024-03-06T12:59:49;27.40;;;24.50;;
2544;SDS011;36212;48.838;9.142;2024-03-06T13:02:22;28.30;;;25.48;;
2544;SDS011;36212;48.838;9.142;2024-03-06T13:04:55;26.52;;;23.67;;
2544;SDS011;36212;48.838;9.142;2024-03-06T13:07:28;29.02;;;25.70;;
2544;SDS011;36212;48.838;9.142;2024-03-06T13:10:02;27.40;;;24.60;;
2544;SDS011;36212;48.838;9.142;2024-03-06T13:12:41;25.13;;;22.42;;
2544;SDS011;36212;48.838;9.142;2024-03-06T13:15:40;24.55;;;22.05;;
2544;SDS011;36212;48.838;9.142;2024-03-06T13:18:13;25.30;;;22.90;;
2544;SDS011;36212;48.838;9.142;2024-03-06T13:20:46;24.20;;;21.77;;
2544;SDS011;36212;48.838;9.142;2024-03-06T13:23:21;24.70;;;22.08;;
2544;SDS011;36212;48.838;9.142;2024-03-06T13:25:54;25.30;;;22.67;;
2544;SDS011;36212;48.838;9.142;2024-03-06T13:28:29;24.60;;;22.00;;
2544;SDS011;36212;48.838;9.142;2024-03-06T13:31:01;23.95;;;21.75;;
2544;SDS011;36212;48.838;9.142;2024-03-06T13:33:37;26.08;;;23.42;;
2544;SDS011;36212;48.838;9.142;2024-03-06T13:36:10;25.23;;;22.73;;
2544;SDS011;36212;48.838;9.142;2024-03-06T13:38:46;26.20;;;23.50;;
2544;SDS011;36212;48.838;9.142;2024-03-06T13:41:18;24.25;;;21.85;;
2544;SDS011;36212;48.838;9.142;2024-03-06T13:43:52;24.83;;;22.17;;
2544;SDS011;36212;48.838;9.142;2024-03-06T13:46:24;31.83;;;24.60;;
2544;SDS011;36212;48.838;9.142;2024-03-06T13:48:57;27.35;;;24.52;;
2544;SDS011;36212;48.838;9.142;2024-03-06T13:52:11;27.02;;;23.90;;
2544;SDS011;36212;48.838;9.142;2024-03-06T13:54:51;28.15;;;25.40;;
2544;SDS011;36212;48.838;9.142;2024-03-06T13:57:23;28.27;;;25.52;;
2544;SDS011;36212;48.838;9.142;2024-03-06T13:59:55;29.27;;;26.42;;
2544;SDS011;36212;48.838;9.142;2024-03-06T14:02:32;30.10;;;26.83;;
2544;SDS011;36212;48.838;9.142;2024-03-06T14:05:05;30.30;;;26.73;;
2544;SDS011;36212;48.838;9.142;2024-03-06T14:07:40;29.25;;;26.33;;
2544;SDS011;36212;48.838;9.142;2024-03-06T14:10:14;28.08;;;25.08;;
2544;SDS011;36212;48.838;9.142;2024-03-06T14:12:50;29.60;;;26.50;;
2544;SDS011;36212;48.838;9.142;2024-03-06T14:15:26;29.35;;;26.40;;
2544;SDS011;36212;48.838;9.142;2024-03-06T14:18:23;26.55;;;23.95;;
2544;SDS011;36212;48.838;9.142;2024-03-06T14:21:21;26.85;;;24.15;;
2544;SDS011;36212;48.838;9.142;2024-03-06T14:23:54;29.17;;;26.38;;
2544;SDS011;36212;48.838;9.142;2024-03-06T14:26:29;27.60;;;24.95;;
2544;SDS011;36212;48.838;9.142;2024-03-06T14:29:05;28.52;;;25.55;;
2544;SDS011;36212;48.838;9.142;2024-03-06T14:31:39;28.65;;;25.92;;
2544;SDS011;36212;48.838;9.142;2024-03-06T14:34:12;27.40;;;24.80;;
2544;SDS011;36212;48.838;9.142;2024-03-06T14:36:46;29.02;;;26.13;;
2544;SDS011;36212;48.838;9.142;2024-03-06T14:39:21;28.38;;;25.38;;
2544;SDS011;36212;48.838;9.142;2024-03-06T14:41:56;28.77;;;25.88;;
2544;SDS011;36212;48.838;9.142;2024-03-06T14:44:28;26.95;;;24.20;;
2544;SDS011;36212;48.838;9.142;2024-03-06T14:47:01;30.17;;;27.27;;
2544;SDS011;36212;48.838;9.142;2024-03-06T14:49:36;29.48;;;26.48;;
2544;SDS011;36212;48.838;9.142;2024-03-06T14:52:12;28.02;;;25.25;;
2544;SDS011;36212;48.838;9.142;2024-03-06T14:54:45;30.42;;;27.10;;
2544;SDS011;36212;48.838;9.142;2024-03-06T14:57:20;31.00;;;27.58;;
2544;SDS011;36212;48.838;9.142;2024-03-06T14:59:58;30.48;;;27.30;;
2544;SDS011;36212;48.838;9.142;2024-03-06T15:02:31;29.77;;;26.65;;
2544;SDS011;36212;48.838;9.142;2024-03-06T15:05:05;28.90;;;25.90;;
2544;SDS011;36212;48.838;9.142;2024-03-06T15:07:42;29.33;;;26.25;;
2544;SDS011;36212;48.838;9.142;2024-03-06T15:10:15;28.65;;;25.65;;
2544;SDS011;36212;48.838;9.142;2024-03-06T15:12:48;29.30;;;26.20;;
2544;SDS011;36212;48.838;9.142;2024-03-06T15:15:46;28.60;;;25.60;;
2544;SDS011;36212;48.838;9.142;2024-03-06T15:18:19;28.13;;;25.20;;
2544;SDS011;36212;48.838;9.142;2024-03-06T15:20:52;28.58;;;25.52;;
2544;SDS011;36212;48.838;9.142;2024-03-06T15:23:24;28.08;;;25.17;;
2544;SDS011;36212;48.838;9.142;2024-03-06T15:25:58;31.70;;;28.13;;
2544;SDS011;36212;48.838;9.142;2024-03-06T15:28:31;31.00;;;27.85;;
2544;SDS011;36212;48.838;9.142;2024-03-06T15:31:04;32.00;;;27.83;;
2544;SDS011;36212;48.838;9.142;2024-03-06T15:33:38;32.63;;;29.15;;
2544;SDS011;36212;48.838;9.142;2024-03-06T15:36:10;30.20;;;27.00;;
2544;SDS011;36212;48.838;9.142;2024-03-06T15:38:44;33.97;;;27.55;;
2544;SDS011;36212;48.838;9.142;2024-03-06T15:41:17;32.17;;;28.63;;
2544;SDS011;36212;48.838;9.142;2024-03-06T15:43:52;30.73;;;27.63;;
2544;SDS011;36212;48.838;9.142;2024-03-06T15:46:26;30.70;;;27.52;;
2544;SDS011;36212;48.838;9.142;2024-03-06T15:48:59;26.95;;;24.05;;
2544;SDS011;36212;48.838;9.142;2024-03-06T15:51:50;31.40;;;27.60;;
2544;SDS011;36212;48.838;9.142;2024-03-06T15:54:23;32.22;;;27.25;;
2544;SDS011;36212;48.838;9.142;2024-03-06T15:56:55;29.00;;;25.40;;